createdAt,value
2022-10-27T00:02:28.896Z,3.10
2022-10-27T00:07:33.883Z,3.70
2022-10-27T00:12:37.264Z,3.50
2022-10-27T00:17:41.308Z,3.30
2022-10-27T00:22:46.355Z,3.30
2022-10-27T00:27:50.064Z,3.40
2022-10-27T00:32:55.035Z,3.33
2022-10-27T00:38:00.098Z,3.50
2022-10-27T00:43:03.628Z,8.90
2022-10-27T00:48:07.309Z,5.53
2022-10-27T00:53:12.714Z,3.40
2022-10-27T00:58:17.064Z,3.77
2022-10-27T01:03:22.362Z,3.37
2022-10-27T01:08:27.889Z,3.23
2022-10-27T01:13:32.878Z,3.23
2022-10-27T01:18:40.012Z,4.67
2022-10-27T01:23:49.828Z,4.27
2022-10-27T01:29:15.970Z,4.50
2022-10-27T01:34:23.798Z,4.37
2022-10-27T01:39:30.793Z,3.73
2022-10-27T01:44:35.758Z,2.90
2022-10-27T01:49:41.553Z,2.50
2022-10-27T01:54:45.425Z,3.10
2022-10-27T01:59:56.269Z,3.50
2022-10-27T02:05:06.501Z,2.73
2022-10-27T02:10:14.026Z,3.00
2022-10-27T02:15:22.988Z,2.90
2022-10-27T02:20:31.138Z,3.13
2022-10-27T02:25:37.496Z,2.83
2022-10-27T02:30:41.693Z,3.23
2022-10-27T02:35:48.666Z,3.20
2022-10-27T02:40:52.330Z,3.53
2022-10-27T02:45:56.122Z,3.20
2022-10-27T02:51:01.385Z,3.03
2022-10-27T02:56:05.240Z,3.27
2022-10-27T03:01:08.963Z,3.27
2022-10-27T03:06:14.228Z,2.90
2022-10-27T03:11:17.995Z,2.43
2022-10-27T03:16:21.625Z,3.03
2022-10-27T03:21:26.353Z,3.10
2022-10-27T03:26:29.976Z,3.13
2022-10-27T03:31:34.290Z,3.23
2022-10-27T03:36:39.924Z,2.73
2022-10-27T03:41:43.386Z,3.57
2022-10-27T03:46:46.933Z,3.80
2022-10-27T03:51:52.183Z,4.00
2022-10-27T03:56:55.661Z,4.27
2022-10-27T04:02:01.151Z,4.07
2022-10-27T04:07:08.722Z,4.13
2022-10-27T04:12:12.414Z,4.23
2022-10-27T04:17:16.914Z,4.10
2022-10-27T04:22:21.933Z,4.40
2022-10-27T04:27:25.916Z,4.70
2022-10-27T04:32:29.434Z,5.40
2022-10-27T04:37:34.469Z,6.97
2022-10-27T04:42:38.006Z,7.03
2022-10-27T04:47:41.550Z,9.70
2022-10-27T04:52:55.316Z,8.43
2022-10-27T04:57:58.918Z,8.13
2022-10-27T05:03:02.277Z,10.70
2022-10-27T05:08:07.106Z,12.10
2022-10-27T05:13:10.504Z,14.43
2022-10-27T05:18:14.168Z,17.00
2022-10-27T05:23:18.983Z,17.43
2022-10-27T05:28:25.277Z,17.70
2022-10-27T05:33:31.518Z,18.90
2022-10-27T05:38:38.269Z,18.00
2022-10-27T05:43:43.965Z,17.57
2022-10-27T05:48:47.516Z,18.60
2022-10-27T05:53:56.764Z,14.60
2022-10-27T05:59:00.422Z,10.23
2022-10-27T06:04:04.081Z,8.87
2022-10-27T06:09:09.219Z,6.63
2022-10-27T06:14:12.646Z,6.27
2022-10-27T06:19:16.125Z,6.93
2022-10-27T06:24:21.501Z,5.87
2022-10-27T06:29:24.855Z,6.63
2022-10-27T06:34:28.545Z,4.80
2022-10-27T06:39:33.553Z,5.80
2022-10-27T06:44:36.885Z,4.37
2022-10-27T06:49:40.629Z,4.90
2022-10-27T06:54:45.756Z,4.50
2022-10-27T06:59:49.286Z,4.20
2022-10-27T07:04:52.855Z,4.23
2022-10-27T07:09:57.836Z,4.53
2022-10-27T07:15:01.464Z,3.93
2022-10-27T07:20:05.207Z,4.87
2022-10-27T07:25:10.916Z,3.90
2022-10-27T07:30:15.595Z,4.83
2022-10-27T07:35:19.410Z,5.70
2022-10-27T07:40:28.745Z,4.73
2022-10-27T07:45:35.909Z,5.27
2022-10-27T07:50:39.980Z,5.93
2022-10-27T07:55:45.522Z,5.37
2022-10-27T08:00:49.618Z,4.73
2022-10-27T08:05:53.739Z,4.43
2022-10-27T08:11:01.129Z,6.23
2022-10-27T08:16:04.884Z,6.00
2022-10-27T08:21:08.625Z,5.23
2022-10-27T08:26:14.162Z,5.70
2022-10-27T08:31:17.720Z,5.23
2022-10-27T08:36:21.843Z,4.50
2022-10-27T08:41:41.130Z,4.57
2022-10-27T08:46:46.349Z,3.40
2022-10-27T08:51:51.738Z,3.57
2022-10-27T08:56:58.486Z,3.60
2022-10-27T09:02:08.492Z,3.47
2022-10-27T09:07:17.089Z,2.70
2022-10-27T09:12:27.056Z,3.00
2022-10-27T09:17:33.908Z,3.40
2022-10-27T09:22:40.096Z,4.07
2022-10-27T09:27:45.615Z,2.90
2022-10-27T09:32:50.874Z,2.57
2022-10-27T09:37:57.005Z,3.37
2022-10-27T09:43:03.880Z,3.13
2022-10-27T09:48:09.189Z,2.77
2022-10-27T09:53:28.038Z,2.70
2022-10-27T09:58:33.282Z,3.17
2022-10-27T10:03:37.220Z,2.87
2022-10-27T10:08:40.576Z,3.27
2022-10-27T10:13:57.825Z,3.50
2022-10-27T10:19:03.914Z,2.97
2022-10-27T10:24:07.666Z,2.30
2022-10-27T10:29:18.165Z,2.93
2022-10-27T10:34:30.435Z,3.13
2022-10-27T10:39:35.299Z,2.83
2022-10-27T10:44:40.120Z,2.70
2022-10-27T10:49:47.325Z,3.00
2022-10-27T10:54:50.979Z,3.60
2022-10-27T10:59:56.788Z,4.10
2022-10-27T11:05:10.879Z,3.90
2022-10-27T11:10:15.615Z,4.13
2022-10-27T11:15:22.201Z,4.53
2022-10-27T11:20:27.115Z,4.17
2022-10-27T11:25:33.526Z,3.37
2022-10-27T11:30:41.582Z,3.27
2022-10-27T11:35:50.271Z,2.20
2022-10-27T11:40:58.170Z,2.37
2022-10-27T11:46:07.022Z,1.65
2022-10-27T11:51:12.486Z,2.50
2022-10-27T11:56:29.675Z,2.47
2022-10-27T12:01:45.597Z,2.10
2022-10-27T12:06:52.185Z,2.35
2022-10-27T12:12:01.113Z,1.80
2022-10-27T12:17:09.341Z,2.28
2022-10-27T12:22:15.728Z,2.40
2022-10-27T12:27:22.748Z,2.20
2022-10-27T12:32:30.077Z,1.85
2022-10-27T12:37:37.777Z,1.77
2022-10-27T12:42:44.074Z,2.35
2022-10-27T12:47:54.169Z,1.92
2022-10-27T12:53:00.415Z,2.20
2022-10-27T12:58:05.191Z,1.83
2022-10-27T13:03:26.264Z,2.42
2022-10-27T13:09:03.441Z,2.50
2022-10-27T13:14:17.601Z,1.85
2022-10-27T13:19:36.458Z,1.63
2022-10-27T13:24:46.685Z,2.20
2022-10-27T13:29:52.624Z,1.80
2022-10-27T13:35:11.153Z,1.70
2022-10-27T13:40:33.761Z,2.05
2022-10-27T13:45:52.339Z,2.87
2022-10-27T13:50:57.503Z,2.00
2022-10-27T13:56:01.745Z,2.20
2022-10-27T14:01:29.647Z,2.20
2022-10-27T14:06:36.507Z,2.43
2022-10-27T14:11:47.161Z,2.33
2022-10-27T14:16:50.660Z,1.93
2022-10-27T14:21:57.079Z,2.23
2022-10-27T14:27:01.028Z,2.63
2022-10-27T14:32:14.307Z,2.33
2022-10-27T14:37:20.775Z,2.00
2022-10-27T14:42:28.246Z,1.93
2022-10-27T14:47:35.281Z,2.37
2022-10-27T14:52:43.895Z,2.20
2022-10-27T14:57:52.289Z,1.90
2022-10-27T15:02:56.989Z,2.50
2022-10-27T15:08:03.658Z,2.00
2022-10-27T15:13:08.971Z,2.10
2022-10-27T15:23:23.238Z,2.07
2022-10-27T15:28:28.436Z,3.17
2022-10-27T15:33:34.081Z,2.57
2022-10-27T15:38:38.921Z,2.00
2022-10-27T15:43:42.377Z,2.47
2022-10-27T15:48:46.441Z,2.90
2022-10-27T15:53:53.086Z,2.80
2022-10-27T15:59:15.036Z,2.80
2022-10-27T16:04:39.193Z,2.80
2022-10-27T16:09:45.210Z,3.20
2022-10-27T16:14:53.027Z,2.37
2022-10-27T16:19:59.072Z,2.57
2022-10-27T16:25:04.095Z,2.97
2022-10-27T16:30:07.925Z,2.60
2022-10-27T16:35:13.721Z,3.03
2022-10-27T16:40:19.280Z,3.40
2022-10-27T16:45:22.512Z,3.33
2022-10-27T16:50:25.876Z,3.53
2022-10-27T16:55:30.751Z,3.40
2022-10-27T17:00:34.410Z,4.00
2022-10-27T17:05:38.022Z,3.90
2022-10-27T17:10:42.924Z,3.50
2022-10-27T17:15:46.265Z,3.03
2022-10-27T17:20:55.987Z,4.10
2022-10-27T17:26:04.834Z,3.93
2022-10-27T17:31:09.263Z,3.37
2022-10-27T17:36:14.181Z,3.43
2022-10-27T17:41:19.169Z,3.03
2022-10-27T17:46:23.195Z,3.63
2022-10-27T17:51:27.471Z,3.03
2022-10-27T17:56:33.897Z,2.50
2022-10-27T18:01:39.497Z,3.50
2022-10-27T18:06:43.394Z,3.17
2022-10-27T18:11:48.231Z,2.83
2022-10-27T18:16:52.031Z,2.57
2022-10-27T18:21:55.525Z,3.03
2022-10-27T18:27:00.367Z,3.30
2022-10-27T18:32:03.896Z,3.07
2022-10-27T18:37:07.396Z,2.83
2022-10-27T18:42:12.069Z,3.40
2022-10-27T18:47:15.552Z,3.17
2022-10-27T18:52:19.089Z,2.93
2022-10-27T18:57:24.012Z,3.23
2022-10-27T19:02:30.072Z,3.00
2022-10-27T19:07:33.587Z,2.93
2022-10-27T19:12:38.461Z,2.77
2022-10-27T19:17:42.925Z,3.30
2022-10-27T19:22:46.544Z,3.10
2022-10-27T19:27:51.436Z,3.57
2022-10-27T19:32:55.071Z,3.17
2022-10-27T19:37:58.643Z,2.87
2022-10-27T19:43:03.496Z,3.63
2022-10-27T19:48:07.671Z,3.00
2022-10-27T19:53:11.223Z,2.80
2022-10-27T19:58:16.279Z,2.80
2022-10-27T20:03:19.777Z,3.23
2022-10-27T20:08:23.314Z,2.77
2022-10-27T20:13:28.199Z,3.97
2022-10-27T20:18:31.787Z,3.13
2022-10-27T20:23:35.248Z,3.10
2022-10-27T20:28:40.217Z,2.90
2022-10-27T20:33:43.590Z,3.50
2022-10-27T20:38:47.096Z,3.47
2022-10-27T20:43:55.444Z,2.90
2022-10-27T20:49:00.118Z,3.33
2022-10-27T20:54:04.136Z,3.70
2022-10-27T20:59:09.082Z,3.60
2022-10-27T21:04:13.521Z,3.77
2022-10-27T21:09:18.138Z,3.30
2022-10-27T21:14:23.258Z,4.10
2022-10-27T21:19:26.592Z,3.80
2022-10-27T21:24:30.006Z,3.50
2022-10-27T21:29:34.855Z,3.40
2022-10-27T21:34:38.256Z,3.20
2022-10-27T21:39:41.692Z,3.10
2022-10-27T21:44:47.068Z,3.07
2022-10-27T21:49:51.649Z,3.47
2022-10-27T21:54:55.068Z,3.10
2022-10-27T21:59:59.859Z,3.10
2022-10-27T22:05:03.166Z,2.73
2022-10-27T22:10:06.873Z,2.80
2022-10-27T22:15:12.058Z,3.00
2022-10-27T22:20:15.416Z,2.77
2022-10-27T22:25:18.774Z,3.17
2022-10-27T22:30:23.414Z,3.17
2022-10-27T22:35:26.902Z,2.70
2022-10-27T22:40:30.291Z,3.70
2022-10-27T22:45:35.035Z,3.60
2022-10-27T22:50:38.402Z,3.10
2022-10-27T22:55:41.832Z,3.50
2022-10-27T23:00:46.617Z,3.33
2022-10-27T23:05:49.956Z,3.63
2022-10-27T23:10:55.729Z,3.00
2022-10-27T23:16:01.333Z,3.70
2022-10-27T23:21:05.737Z,4.20
2022-10-27T23:26:15.392Z,4.63
2022-10-27T23:31:20.523Z,4.90
2022-10-27T23:36:24.052Z,3.60
2022-10-27T23:41:27.699Z,3.27
2022-10-27T23:46:32.678Z,3.10
2022-10-27T23:51:36.043Z,2.93
2022-10-27T23:56:39.753Z,3.80
